Muscat, Oman
Current Conditions -  °F | °C
As of 4:50 PM on Thursday 30 Oct 2014 (Local Time) from OOMS Reporting Station
Scattered Clouds Scattered Clouds  
Wind Chill: 84°   Ceiling: Unl
Heat Index: 91°   Visibility: 5mi
Dew Point: 73°   Wind: 13mph
Humidity: 70%   Direction: 50°NE
Pressure: 29.83"   Gusts: NA
Location:  23.61°N, 58.54°E
Report Text: OOMS 301250Z 05011KT 8000 SCT025 29/23 Q1010 NOSIG
Loading
Personal Weather Stations






























Interactive Weather Map
Tropical Storm Tracking
New forecast layout! Learn more

10-Day Weather Forecast

Advertisements
Track Severe Weather on mobile